createdAt,value
2023-03-30T00:01:07.513Z,46.62
2023-03-30T00:03:34.731Z,46.86
2023-03-30T00:06:05.935Z,46.82
2023-03-30T00:08:33.560Z,46.61
2023-03-30T00:11:13.408Z,46.81
2023-03-30T00:13:41.603Z,46.70
2023-03-30T00:16:12.986Z,47.08
2023-03-30T00:18:41.252Z,47.23
2023-03-30T00:21:09.802Z,46.83
2023-03-30T00:23:38.344Z,47.18
2023-03-30T00:26:06.111Z,47.41
2023-03-30T00:28:33.624Z,46.91
2023-03-30T00:31:00.989Z,46.95
2023-03-30T00:33:43.998Z,47.06
2023-03-30T00:36:13.612Z,47.39
2023-03-30T00:38:41.068Z,47.54
2023-03-30T00:41:08.425Z,47.31
2023-03-30T00:43:35.634Z,47.39
2023-03-30T00:46:02.878Z,47.31
2023-03-30T00:48:37.099Z,47.38
2023-03-30T00:51:11.458Z,47.58
2023-03-30T00:53:47.182Z,47.54
2023-03-30T00:56:19.783Z,47.79
2023-03-30T00:58:47.476Z,47.39
2023-03-30T01:01:18.181Z,47.78
2023-03-30T01:03:49.899Z,47.83
2023-03-30T01:06:20.537Z,47.93
2023-03-30T01:08:48.239Z,48.16
2023-03-30T01:11:15.392Z,47.93
2023-03-30T01:13:49.169Z,48.15
2023-03-30T01:16:44.050Z,48.16
2023-03-30T01:19:39.744Z,48.44
2023-03-30T01:22:31.142Z,48.38
2023-03-30T01:25:27.460Z,48.69
2023-03-30T01:28:43.390Z,48.75
2023-03-30T01:31:52.789Z,48.69
2023-03-30T01:34:39.397Z,48.75
2023-03-30T01:37:34.322Z,49.22
2023-03-30T01:40:16.313Z,49.03
2023-03-30T01:42:46.403Z,49.28
2023-03-30T01:45:23.283Z,49.14
2023-03-30T01:48:07.702Z,49.01
2023-03-30T01:50:42.740Z,49.19
2023-03-30T01:53:20.835Z,49.13
2023-03-30T01:56:13.863Z,49.11
2023-03-30T01:59:05.700Z,49.42
2023-03-30T02:01:38.499Z,49.29
2023-03-30T02:04:10.955Z,49.30
2023-03-30T02:06:52.044Z,49.35
2023-03-30T02:09:24.479Z,49.48
2023-03-30T02:11:53.497Z,49.42
2023-03-30T02:14:27.676Z,49.41
2023-03-30T02:17:03.606Z,49.44
2023-03-30T02:19:30.824Z,49.50
2023-03-30T02:21:58.089Z,49.62
2023-03-30T02:24:30.678Z,49.40
2023-03-30T02:27:00.746Z,49.80
2023-03-30T02:29:29.070Z,49.63
2023-03-30T02:31:59.987Z,49.91
2023-03-30T02:34:50.324Z,49.68
2023-03-30T02:37:42.435Z,49.76
2023-03-30T02:40:28.520Z,49.84
2023-03-30T02:43:48.339Z,49.73
2023-03-30T02:46:40.754Z,50.00
2023-03-30T02:49:40.425Z,49.98
2023-03-30T02:52:58.761Z,50.02
2023-03-30T02:55:54.051Z,50.15
2023-03-30T02:59:03.595Z,50.66
2023-03-30T03:01:44.543Z,50.60
2023-03-30T03:04:13.427Z,50.27
2023-03-30T03:06:42.639Z,50.50
2023-03-30T03:09:10.053Z,50.21
2023-03-30T03:11:37.327Z,50.42
2023-03-30T03:14:04.801Z,50.32
2023-03-30T03:16:32.448Z,50.44
2023-03-30T03:18:59.590Z,50.21
2023-03-30T03:21:26.736Z,50.28
2023-03-30T03:23:54.299Z,50.52
2023-03-30T03:26:21.457Z,50.44
2023-03-30T03:28:48.863Z,50.36
2023-03-30T03:31:16.052Z,50.81
2023-03-30T03:33:43.294Z,50.51
2023-03-30T03:36:10.878Z,50.33
2023-03-30T03:38:40.035Z,50.84
2023-03-30T03:41:07.280Z,50.81
2023-03-30T03:43:34.580Z,50.55
2023-03-30T03:46:01.831Z,50.59
2023-03-30T03:48:29.438Z,51.00
2023-03-30T03:50:58.735Z,51.41
2023-03-30T03:53:28.485Z,50.75
2023-03-30T03:55:56.043Z,51.28
2023-03-30T03:58:25.000Z,51.32
2023-03-30T04:00:58.752Z,51.38
2023-03-30T04:03:26.109Z,51.51
2023-03-30T04:05:58.039Z,51.49
2023-03-30T04:08:25.550Z,51.89
2023-03-30T04:10:52.777Z,52.04
2023-03-30T04:13:19.979Z,51.74
2023-03-30T04:15:47.188Z,51.75
2023-03-30T04:18:14.346Z,51.50
2023-03-30T04:20:41.602Z,51.70
2023-03-30T04:23:08.800Z,51.66
2023-03-30T04:25:35.921Z,51.84
2023-03-30T04:28:03.094Z,51.62
2023-03-30T04:30:30.242Z,51.84
2023-03-30T04:32:57.422Z,52.01
2023-03-30T04:35:24.564Z,51.85
2023-03-30T04:37:51.708Z,51.79
2023-03-30T04:40:18.983Z,51.87
2023-03-30T04:42:46.373Z,52.06
2023-03-30T04:45:13.643Z,51.75
2023-03-30T04:47:41.337Z,51.77
2023-03-30T04:50:09.302Z,52.14
2023-03-30T04:52:36.710Z,51.88
2023-03-30T04:55:04.723Z,51.71
2023-03-30T04:57:31.891Z,51.63
2023-03-30T04:59:59.027Z,51.74
2023-03-30T05:02:26.495Z,52.07
2023-03-30T05:04:53.770Z,52.01
2023-03-30T05:07:21.047Z,52.03
2023-03-30T05:09:48.599Z,51.91
2023-03-30T05:12:16.266Z,51.93
2023-03-30T05:14:43.466Z,52.03
2023-03-30T05:17:10.850Z,52.14
2023-03-30T05:19:38.052Z,52.18
2023-03-30T05:22:05.185Z,52.72
2023-03-30T05:24:32.453Z,52.49
2023-03-30T05:26:59.705Z,52.46
2023-03-30T05:29:27.067Z,52.47
2023-03-30T05:31:54.228Z,52.53
2023-03-30T05:34:21.424Z,52.39
2023-03-30T05:36:48.589Z,52.71
2023-03-30T05:39:15.767Z,52.66
2023-03-30T05:41:42.976Z,52.64
2023-03-30T05:44:10.201Z,52.61
2023-03-30T05:46:37.835Z,52.49
2023-03-30T05:49:05.270Z,52.87
2023-03-30T05:51:32.438Z,53.36
2023-03-30T05:53:59.678Z,53.01
2023-03-30T05:56:26.920Z,52.93
2023-03-30T05:58:54.516Z,52.81
2023-03-30T06:01:21.865Z,52.91
2023-03-30T06:03:49.371Z,53.06
2023-03-30T06:06:16.776Z,52.55
2023-03-30T06:08:44.041Z,53.04
2023-03-30T06:11:11.398Z,53.03
2023-03-30T06:13:38.608Z,53.09
2023-03-30T06:16:06.428Z,52.93
2023-03-30T06:18:34.217Z,52.82
2023-03-30T06:21:01.536Z,52.95
2023-03-30T06:23:29.286Z,52.87
2023-03-30T06:25:56.410Z,52.85
2023-03-30T06:28:23.861Z,52.87
2023-03-30T06:30:51.345Z,52.73
2023-03-30T06:33:19.429Z,52.39
2023-03-30T06:35:52.421Z,52.35
2023-03-30T06:38:22.875Z,52.16
2023-03-30T06:40:50.141Z,52.24
2023-03-30T06:43:24.220Z,51.86
2023-03-30T06:45:57.321Z,51.83
2023-03-30T06:48:25.277Z,51.81
2023-03-30T06:50:54.260Z,51.59
2023-03-30T06:53:24.049Z,51.81
2023-03-30T06:55:57.939Z,51.65
2023-03-30T06:58:27.425Z,51.72
2023-03-30T07:00:55.766Z,51.55
2023-03-30T07:03:23.322Z,51.45
2023-03-30T07:05:52.270Z,51.34
2023-03-30T07:08:20.619Z,51.23
2023-03-30T07:10:48.787Z,51.04
2023-03-30T07:13:17.277Z,50.98
2023-03-30T07:15:46.564Z,50.85
2023-03-30T07:18:14.793Z,50.62
2023-03-30T07:20:42.561Z,50.42
2023-03-30T07:23:09.759Z,50.23
2023-03-30T07:25:37.170Z,50.08
2023-03-30T07:28:05.394Z,50.00
2023-03-30T07:30:35.043Z,49.73
2023-03-30T07:33:02.439Z,49.50
2023-03-30T07:35:29.856Z,49.57
2023-03-30T07:38:03.413Z,49.50
2023-03-30T07:40:31.740Z,49.26
2023-03-30T07:42:59.035Z,49.02
2023-03-30T07:45:26.321Z,48.21
2023-03-30T07:47:53.553Z,48.08
2023-03-30T07:50:20.917Z,47.97
2023-03-30T07:52:48.293Z,47.55
2023-03-30T07:55:15.655Z,47.41
2023-03-30T07:57:43.185Z,47.46
2023-03-30T08:00:11.763Z,47.33
2023-03-30T08:02:39.008Z,47.18
2023-03-30T08:05:06.788Z,47.64
2023-03-30T08:07:34.025Z,47.33
2023-03-30T08:10:01.746Z,47.60
2023-03-30T08:12:28.945Z,47.47
2023-03-30T08:14:56.257Z,47.19
2023-03-30T08:17:23.591Z,47.07
2023-03-30T08:19:50.815Z,46.89
2023-03-30T08:22:18.001Z,45.99
2023-03-30T08:24:45.209Z,45.48
2023-03-30T08:27:12.601Z,45.32
2023-03-30T08:29:39.800Z,45.47
2023-03-30T08:32:07.484Z,45.45
2023-03-30T08:34:36.184Z,45.34
2023-03-30T08:37:04.530Z,45.34
2023-03-30T08:39:31.914Z,45.20
2023-03-30T08:42:23.761Z,45.67
2023-03-30T08:44:57.904Z,45.61
2023-03-30T08:47:42.205Z,45.58
2023-03-30T08:50:17.994Z,45.68
2023-03-30T08:52:46.927Z,45.39
2023-03-30T08:55:20.764Z,45.14
2023-03-30T08:58:12.881Z,45.14
2023-03-30T09:01:18.659Z,44.96
2023-03-30T09:04:22.472Z,45.09
2023-03-30T09:06:56.159Z,45.17
2023-03-30T09:09:29.976Z,45.34
2023-03-30T09:12:28.125Z,45.28
2023-03-30T09:15:04.729Z,45.07
2023-03-30T09:17:39.917Z,45.18
2023-03-30T09:20:26.453Z,44.57
2023-03-30T09:22:58.370Z,44.63
2023-03-30T09:25:56.257Z,44.76
2023-03-30T09:28:31.664Z,45.00
2023-03-30T09:31:14.103Z,44.97
2023-03-30T09:34:05.004Z,44.80
2023-03-30T09:36:59.142Z,44.54
2023-03-30T09:39:31.623Z,44.47
2023-03-30T09:42:30.826Z,44.10
2023-03-30T09:45:20.196Z,43.68
2023-03-30T09:47:47.549Z,43.99
2023-03-30T09:50:26.236Z,43.78
2023-03-30T09:53:07.236Z,43.37
2023-03-30T09:55:37.308Z,43.93
2023-03-30T09:58:19.378Z,43.69
2023-03-30T10:01:05.739Z,43.20
2023-03-30T10:03:33.658Z,43.40
2023-03-30T10:06:26.118Z,42.83
2023-03-30T10:08:55.926Z,43.83
2023-03-30T10:11:34.243Z,43.94
2023-03-30T10:14:01.697Z,43.99
2023-03-30T10:16:32.169Z,43.59
2023-03-30T10:19:13.522Z,43.60
2023-03-30T10:21:42.225Z,43.92
2023-03-30T10:24:15.320Z,43.58
2023-03-30T10:26:47.214Z,43.51
2023-03-30T10:29:19.127Z,43.07
2023-03-30T10:31:50.453Z,42.73
2023-03-30T10:34:42.478Z,41.60
2023-03-30T10:37:25.498Z,40.14
2023-03-30T10:39:53.415Z,38.52
2023-03-30T10:42:27.096Z,37.54
2023-03-30T10:45:03.116Z,36.32
2023-03-30T10:48:22.922Z,35.37
2023-03-30T10:50:59.287Z,34.30
2023-03-30T10:53:35.057Z,34.29
2023-03-30T10:56:32.744Z,33.96
2023-03-30T10:59:08.826Z,34.06
2023-03-30T11:02:01.383Z,33.49
2023-03-30T11:04:34.159Z,33.56
2023-03-30T11:07:02.630Z,33.88
2023-03-30T11:09:38.941Z,34.32
2023-03-30T11:12:20.183Z,34.15
2023-03-30T11:14:55.815Z,34.25
2023-03-30T11:18:04.783Z,34.26
2023-03-30T11:20:41.701Z,34.24
2023-03-30T11:23:45.345Z,34.18
2023-03-30T11:26:25.069Z,33.91
2023-03-30T11:29:19.365Z,33.63
2023-03-30T11:32:10.558Z,33.47
2023-03-30T11:35:10.001Z,33.50
2023-03-30T11:37:48.380Z,33.61
2023-03-30T11:40:26.993Z,33.40
2023-03-30T11:42:55.641Z,32.89
2023-03-30T11:45:41.181Z,33.32
2023-03-30T11:48:33.316Z,33.18
2023-03-30T11:52:10.190Z,33.14
2023-03-30T11:55:18.394Z,33.68
2023-03-30T11:58:06.714Z,34.24
2023-03-30T12:01:13.049Z,34.66
2023-03-30T12:03:49.273Z,34.22
2023-03-30T12:06:34.730Z,34.02
2023-03-30T12:09:39.140Z,33.67
2023-03-30T12:12:11.501Z,32.52
2023-03-30T12:15:18.230Z,31.98
2023-03-30T12:17:54.820Z,31.36
2023-03-30T12:20:53.391Z,31.02
2023-03-30T12:23:42.449Z,30.92
2023-03-30T12:26:28.056Z,31.15
2023-03-30T12:29:44.333Z,30.81
2023-03-30T12:32:07.010Z,30.74
2023-03-30T12:34:37.901Z,30.76
2023-03-30T12:37:23.504Z,30.29
2023-03-30T12:40:05.396Z,30.26
2023-03-30T12:42:36.505Z,29.66
2023-03-30T12:45:15.982Z,29.58
2023-03-30T12:48:03.826Z,30.13
2023-03-30T12:51:07.885Z,29.42
2023-03-30T12:53:56.762Z,29.38
2023-03-30T12:56:59.872Z,29.17
2023-03-30T13:03:04.598Z,28.92
2023-03-30T13:05:41.305Z,28.97
2023-03-30T13:08:19.066Z,28.68
2023-03-30T13:10:46.361Z,28.91
2023-03-30T13:13:47.266Z,28.86
2023-03-30T13:16:14.748Z,28.91
2023-03-30T13:18:55.786Z,28.97
2023-03-30T13:21:25.762Z,28.62
2023-03-30T13:24:21.093Z,28.52
2023-03-30T13:26:49.927Z,29.45
2023-03-30T13:29:17.696Z,28.60
2023-03-30T13:32:33.017Z,29.28
2023-03-30T13:35:40.125Z,28.78
2023-03-30T13:38:29.071Z,28.95
2023-03-30T13:41:17.184Z,29.47
2023-03-30T13:44:05.692Z,29.01
2023-03-30T13:46:45.781Z,29.17
2023-03-30T13:49:55.730Z,29.44
2023-03-30T13:52:33.189Z,29.12
2023-03-30T13:55:05.189Z,29.71
2023-03-30T13:57:40.473Z,29.98
2023-03-30T14:00:33.535Z,30.23
2023-03-30T14:03:38.253Z,29.70
2023-03-30T14:06:24.200Z,29.61
2023-03-30T14:09:06.140Z,29.89
2023-03-30T14:11:39.695Z,29.10
2023-03-30T14:14:07.716Z,29.23
2023-03-30T14:16:40.548Z,29.29
2023-03-30T14:19:20.263Z,30.29
2023-03-30T14:21:48.848Z,30.86
2023-03-30T14:24:30.698Z,31.16
2023-03-30T14:27:14.802Z,31.46
2023-03-30T14:29:48.809Z,32.01
2023-03-30T14:32:19.793Z,32.24
2023-03-30T14:34:52.819Z,32.70
2023-03-30T14:37:23.299Z,33.36
2023-03-30T14:39:56.936Z,33.99
2023-03-30T14:42:32.987Z,33.93
2023-03-30T14:45:01.585Z,34.49
2023-03-30T14:47:29.637Z,34.68
2023-03-30T14:50:05.301Z,35.07
2023-03-30T14:52:40.838Z,35.43
2023-03-30T14:55:24.873Z,35.92
2023-03-30T14:57:53.514Z,36.18
2023-03-30T15:00:23.186Z,36.33
2023-03-30T15:03:01.803Z,36.65
2023-03-30T15:05:38.913Z,36.95
2023-03-30T15:08:12.599Z,37.29
2023-03-30T15:11:12.691Z,37.75
2023-03-30T15:13:47.483Z,37.63
2023-03-30T15:16:29.609Z,37.52
2023-03-30T15:19:25.748Z,37.93
2023-03-30T15:21:58.213Z,37.96
2023-03-30T15:24:32.275Z,37.83
2023-03-30T15:27:06.436Z,38.25
2023-03-30T15:29:34.544Z,38.94
2023-03-30T15:32:47.985Z,38.92
2023-03-30T15:35:15.151Z,38.41
2023-03-30T15:38:15.947Z,38.62
2023-03-30T15:40:49.201Z,39.00
2023-03-30T15:43:24.873Z,39.18
2023-03-30T15:46:15.614Z,39.09
2023-03-30T15:48:53.303Z,39.24
2023-03-30T15:51:29.392Z,39.46
2023-03-30T15:54:14.126Z,39.40
2023-03-30T15:57:21.426Z,39.89
2023-03-30T15:59:55.648Z,39.99
2023-03-30T16:02:31.679Z,40.16
2023-03-30T16:05:04.420Z,40.21
2023-03-30T16:07:33.215Z,40.77
2023-03-30T16:10:00.683Z,40.92
2023-03-30T16:12:31.800Z,40.66
2023-03-30T16:14:59.281Z,41.02
2023-03-30T16:17:26.717Z,40.80
2023-03-30T16:19:54.081Z,41.28
2023-03-30T16:22:21.405Z,41.25
2023-03-30T16:24:48.800Z,41.56
2023-03-30T16:27:16.094Z,41.58
2023-03-30T16:29:43.482Z,41.66
2023-03-30T16:32:10.779Z,41.63
2023-03-30T16:34:37.962Z,41.72
2023-03-30T16:37:05.109Z,41.87
2023-03-30T16:39:32.280Z,41.95
2023-03-30T16:41:59.440Z,41.89
2023-03-30T16:44:26.676Z,41.83
2023-03-30T16:46:54.154Z,42.23
2023-03-30T16:49:26.512Z,42.47
2023-03-30T16:51:57.547Z,42.24
2023-03-30T16:54:32.213Z,42.64
2023-03-30T16:57:01.789Z,42.72
2023-03-30T16:59:31.936Z,42.39
2023-03-30T17:02:00.257Z,42.58
2023-03-30T17:04:27.928Z,42.52
2023-03-30T17:06:55.485Z,42.60
2023-03-30T17:09:23.206Z,42.74
2023-03-30T17:11:51.786Z,42.67
2023-03-30T17:14:19.478Z,42.86
2023-03-30T17:16:46.777Z,42.98
2023-03-30T17:19:14.761Z,43.14
2023-03-30T17:21:42.217Z,43.26
2023-03-30T17:24:09.860Z,43.45
2023-03-30T17:26:37.249Z,43.09
2023-03-30T17:29:04.502Z,43.63
2023-03-30T17:31:31.795Z,43.69
2023-03-30T17:33:58.994Z,43.78
2023-03-30T17:36:27.853Z,43.62
2023-03-30T17:38:55.159Z,43.91
2023-03-30T17:41:23.511Z,44.31
2023-03-30T17:43:50.746Z,44.55
2023-03-30T17:46:19.858Z,44.50
2023-03-30T17:48:48.053Z,44.72
2023-03-30T17:51:15.270Z,44.84
2023-03-30T17:53:42.599Z,45.04
2023-03-30T17:56:13.317Z,45.19
2023-03-30T17:58:40.846Z,45.52
2023-03-30T18:01:10.125Z,45.34
2023-03-30T18:03:37.601Z,45.08
2023-03-30T18:06:05.542Z,45.31
2023-03-30T18:08:32.940Z,45.34
2023-03-30T18:11:01.507Z,45.59
2023-03-30T18:13:30.402Z,45.47
2023-03-30T18:15:59.722Z,45.20
2023-03-30T18:18:30.910Z,45.91
2023-03-30T18:21:03.634Z,45.73
2023-03-30T18:23:32.968Z,45.82
2023-03-30T18:26:00.431Z,45.83
2023-03-30T18:28:28.732Z,45.91
2023-03-30T18:30:56.514Z,45.87
2023-03-30T18:33:24.963Z,46.02
2023-03-30T18:35:55.493Z,45.83
2023-03-30T18:38:23.297Z,45.68
2023-03-30T18:40:52.709Z,46.04
2023-03-30T18:43:19.856Z,46.17
2023-03-30T18:45:49.814Z,45.83
2023-03-30T18:48:21.047Z,45.97
2023-03-30T18:50:52.766Z,46.01
2023-03-30T18:53:26.476Z,46.47
2023-03-30T18:55:58.904Z,46.46
2023-03-30T18:58:29.757Z,46.79
2023-03-30T19:00:59.200Z,47.07
2023-03-30T19:03:29.269Z,47.81
2023-03-30T19:05:56.684Z,47.95
2023-03-30T19:08:26.779Z,48.23
2023-03-30T19:10:57.633Z,48.17
2023-03-30T19:13:26.755Z,49.20
2023-03-30T19:15:54.745Z,48.90
2023-03-30T19:18:22.575Z,49.39
2023-03-30T19:20:51.584Z,49.91
2023-03-30T19:23:19.914Z,49.79
2023-03-30T19:25:47.314Z,49.86
2023-03-30T19:28:15.568Z,50.22
2023-03-30T19:30:43.777Z,49.83
2023-03-30T19:33:14.368Z,49.95
2023-03-30T19:35:45.896Z,50.37
2023-03-30T19:38:15.500Z,50.36
2023-03-30T19:40:43.416Z,50.27
2023-03-30T19:43:11.036Z,50.41
2023-03-30T19:45:38.909Z,50.55
2023-03-30T19:48:06.609Z,50.75
2023-03-30T19:50:34.003Z,50.35
2023-03-30T19:53:01.359Z,50.03
2023-03-30T19:55:28.950Z,49.89
2023-03-30T19:57:56.344Z,50.66
2023-03-30T20:00:23.961Z,50.32
2023-03-30T20:02:54.947Z,50.60
2023-03-30T20:05:24.653Z,50.81
2023-03-30T20:07:52.907Z,50.40
2023-03-30T20:10:24.807Z,50.91
2023-03-30T20:12:53.873Z,50.88
2023-03-30T20:15:24.072Z,50.67
2023-03-30T20:17:51.434Z,50.90
2023-03-30T20:20:18.941Z,51.08
2023-03-30T20:22:46.143Z,51.01
2023-03-30T20:25:14.336Z,51.09
2023-03-30T20:27:41.986Z,51.17
2023-03-30T20:30:10.556Z,51.43
2023-03-30T20:32:37.832Z,51.67
2023-03-30T20:35:06.545Z,51.08
2023-03-30T20:37:34.608Z,51.28
2023-03-30T20:40:03.764Z,51.44
2023-03-30T20:42:33.996Z,51.42
2023-03-30T20:45:01.731Z,51.18
2023-03-30T20:47:29.310Z,50.86
2023-03-30T20:49:56.818Z,50.91
2023-03-30T20:52:24.371Z,50.98
2023-03-30T20:54:51.671Z,51.29
2023-03-30T20:57:20.825Z,50.88
2023-03-30T20:59:48.865Z,50.97
2023-03-30T21:02:17.517Z,51.10
2023-03-30T21:04:45.271Z,51.55
2023-03-30T21:07:13.088Z,51.85
2023-03-30T21:09:40.581Z,51.49
2023-03-30T21:12:08.393Z,51.32
2023-03-30T21:14:35.592Z,51.28
2023-03-30T21:17:02.877Z,50.81
2023-03-30T21:19:30.180Z,51.06
2023-03-30T21:21:57.674Z,51.33
2023-03-30T21:24:25.006Z,50.88
2023-03-30T21:26:52.622Z,51.04
2023-03-30T21:29:19.833Z,51.21
2023-03-30T21:31:47.013Z,51.39
2023-03-30T21:34:14.154Z,51.44
2023-03-30T21:36:41.894Z,51.37
2023-03-30T21:39:09.115Z,51.80
2023-03-30T21:41:36.391Z,52.64
2023-03-30T21:44:03.631Z,51.99
2023-03-30T21:46:30.874Z,52.43
2023-03-30T21:48:58.140Z,52.21
2023-03-30T21:51:29.136Z,52.34
2023-03-30T21:53:57.809Z,52.45
2023-03-30T21:56:28.434Z,52.56
2023-03-30T21:58:55.767Z,52.69
2023-03-30T22:01:23.699Z,52.58
2023-03-30T22:03:52.541Z,53.09
2023-03-30T22:06:21.514Z,53.06
2023-03-30T22:08:49.629Z,53.41
2023-03-30T22:11:23.778Z,53.71
2023-03-30T22:13:52.507Z,53.51
2023-03-30T22:16:26.805Z,53.54
2023-03-30T22:18:55.063Z,54.16
2023-03-30T22:21:26.274Z,54.35
2023-03-30T22:23:53.805Z,54.19
2023-03-30T22:26:21.155Z,54.61
2023-03-30T22:28:48.378Z,54.84
2023-03-30T22:31:16.098Z,55.11
2023-03-30T22:33:43.746Z,54.90
2023-03-30T22:36:27.384Z,54.65
2023-03-30T22:38:57.455Z,54.91
2023-03-30T22:41:25.112Z,54.60
2023-03-30T22:43:55.242Z,54.34
2023-03-30T22:46:24.948Z,54.54
2023-03-30T22:48:52.386Z,54.55
2023-03-30T22:51:19.949Z,54.28
2023-03-30T22:53:47.123Z,53.86
2023-03-30T22:56:14.304Z,53.99
2023-03-30T22:58:41.525Z,53.95
2023-03-30T23:01:08.772Z,53.96
2023-03-30T23:03:37.019Z,53.98
2023-03-30T23:06:04.794Z,54.46
2023-03-30T23:08:32.509Z,54.74
2023-03-30T23:10:59.839Z,54.45
2023-03-30T23:13:27.513Z,54.27
2023-03-30T23:15:54.712Z,55.12
2023-03-30T23:18:21.895Z,54.82
2023-03-30T23:20:49.164Z,54.74
2023-03-30T23:23:16.308Z,54.71
2023-03-30T23:25:52.361Z,54.76
2023-03-30T23:28:19.541Z,54.66
2023-03-30T23:30:46.893Z,54.05
2023-03-30T23:33:14.212Z,54.32
2023-03-30T23:35:48.881Z,54.47
2023-03-30T23:38:16.419Z,54.84
2023-03-30T23:40:43.910Z,55.06
2023-03-30T23:43:11.156Z,55.39
2023-03-30T23:45:38.327Z,55.48
2023-03-30T23:48:05.763Z,55.66
2023-03-30T23:50:35.925Z,55.30
2023-03-30T23:53:03.191Z,55.14
2023-03-30T23:55:30.348Z,55.09
2023-03-30T23:57:57.596Z,55.29
